Castile, New York
Current Conditions -  °F | °C
As of 9:54 PM on Friday 19 Dec 2014 (Local Time) from KDSV Reporting Station
NA  
Wind Chill: 29°   Ceiling: NA
Heat Index: 29°   Visibility: 10mi
Dew Point: 21°   Wind: 0mph
Humidity: 72%   Direction: NA
Pressure: 30.25"   Gusts: NA
Location:  42.63°N, 78.05°W
Report Text: KDSV 200254Z AUTO 00000KT 10SM M02/M06 A3025 RMK AO2 SLP260 T10171061 53004 $
Loading
Personal Weather Stations






























Interactive Weather Map New forecast layout! Learn more

10-Day Weather Forecast

Advertisements
Track Severe Weather on mobile